createdAt,value
2022-09-24T00:01:32.587Z,24.20
2022-09-24T00:04:07.306Z,24.80
2022-09-24T00:06:41.797Z,23.70
2022-09-24T00:09:11.516Z,23.70
2022-09-24T00:11:40.212Z,23.30
2022-09-24T00:14:08.344Z,24.70
2022-09-24T00:16:40.478Z,24.20
2022-09-24T00:19:08.378Z,24.20
2022-09-24T00:21:37.870Z,23.70
2022-09-24T00:24:36.179Z,23.00
2022-09-24T00:27:06.133Z,23.10
2022-09-24T00:29:35.621Z,21.70
2022-09-24T00:32:06.282Z,22.30
2022-09-24T00:34:34.494Z,21.10
2022-09-24T00:37:02.472Z,20.30
2022-09-24T00:39:30.344Z,20.30
2022-09-24T00:41:58.345Z,20.30
2022-09-24T00:44:44.935Z,21.40
2022-09-24T00:47:14.874Z,19.80
2022-09-24T00:49:42.691Z,18.70
2022-09-24T00:52:10.835Z,19.00
2022-09-24T00:54:39.679Z,20.20
2022-09-24T00:57:07.687Z,19.90
2022-09-24T00:59:35.904Z,20.00
2022-09-24T01:02:05.333Z,19.00
2022-09-24T01:04:33.360Z,18.60
2022-09-24T01:07:01.563Z,16.80
2022-09-24T01:09:29.916Z,18.70
2022-09-24T01:12:04.129Z,18.40
2022-09-24T01:14:57.996Z,19.30
2022-09-24T01:17:49.812Z,18.00
2022-09-24T01:20:28.265Z,18.20
2022-09-24T01:23:03.366Z,16.70
2022-09-24T01:26:08.043Z,16.70
2022-09-24T01:28:55.179Z,15.80
2022-09-24T01:31:41.876Z,16.60
2022-09-24T01:34:12.254Z,17.50
2022-09-24T01:36:40.796Z,16.50
2022-09-24T01:39:09.227Z,17.80
2022-09-24T01:41:38.604Z,15.80
2022-09-24T01:44:07.480Z,16.50
2022-09-24T01:46:39.424Z,14.80
2022-09-24T01:49:08.528Z,14.60
2022-09-24T01:51:49.481Z,14.80
2022-09-24T01:54:28.353Z,15.30
2022-09-24T01:57:24.281Z,15.70
2022-09-24T02:00:05.362Z,15.60
2022-09-24T02:02:45.444Z,15.60
2022-09-24T02:05:32.812Z,15.40
2022-09-24T02:08:14.990Z,16.10
2022-09-24T02:10:56.795Z,15.70
2022-09-24T02:13:27.758Z,14.70
2022-09-24T02:16:00.011Z,15.00
2022-09-24T02:18:33.651Z,15.10
2022-09-24T02:21:05.517Z,15.50
2022-09-24T02:23:37.698Z,15.60
2022-09-24T02:26:05.745Z,15.30
2022-09-24T02:28:34.280Z,15.60
2022-09-24T02:31:18.791Z,16.00
2022-09-24T02:34:08.096Z,15.90
2022-09-24T02:36:36.736Z,15.30
2022-09-24T02:39:04.822Z,15.90
2022-09-24T02:41:32.778Z,15.50
2022-09-24T02:44:00.689Z,15.00
2022-09-24T02:46:29.311Z,15.00
2022-09-24T02:48:57.789Z,13.70
2022-09-24T02:51:26.511Z,14.50
2022-09-24T02:53:54.285Z,14.40
2022-09-24T02:56:22.171Z,14.20
2022-09-24T02:58:49.901Z,15.40
2022-09-24T03:01:17.912Z,16.40
2022-09-24T03:03:46.141Z,16.90
2022-09-24T03:06:14.339Z,17.30
2022-09-24T03:08:43.316Z,20.40
2022-09-24T03:11:16.353Z,22.10
2022-09-24T03:13:46.305Z,22.00
2022-09-24T03:16:15.272Z,18.20
2022-09-24T03:18:43.289Z,16.60
2022-09-24T03:21:13.454Z,15.80
2022-09-24T03:23:41.792Z,16.80
2022-09-24T03:26:09.702Z,18.70
2022-09-24T03:28:38.114Z,16.50
2022-09-24T03:31:06.530Z,15.90
2022-09-24T03:33:40.402Z,14.10
2022-09-24T03:36:22.860Z,13.60
2022-09-24T03:38:56.514Z,13.20
2022-09-24T03:41:27.510Z,13.20
2022-09-24T03:43:56.003Z,12.70
2022-09-24T03:46:28.424Z,13.50
2022-09-24T03:48:57.976Z,13.50
2022-09-24T03:51:26.090Z,14.30
2022-09-24T03:53:53.953Z,14.00
2022-09-24T03:56:21.754Z,17.40
2022-09-24T03:58:49.539Z,23.80
2022-09-24T04:01:21.721Z,19.80
2022-09-24T04:03:50.628Z,22.10
2022-09-24T04:06:24.871Z,24.80
2022-09-24T04:08:54.127Z,32.30
2022-09-24T04:11:24.715Z,27.10
2022-09-24T04:13:53.650Z,27.60
2022-09-24T04:16:22.208Z,28.70
2022-09-24T04:18:52.608Z,32.70
2022-09-24T04:21:21.669Z,31.50
2022-09-24T04:23:52.156Z,31.10
2022-09-24T04:26:21.718Z,26.60
2022-09-24T04:28:50.602Z,19.20
2022-09-24T04:31:19.361Z,18.90
2022-09-24T04:33:47.378Z,17.80
2022-09-24T04:36:15.307Z,16.80
2022-09-24T04:38:43.335Z,18.50
2022-09-24T04:41:12.579Z,22.90
2022-09-24T04:43:46.074Z,24.90
2022-09-24T04:46:15.017Z,22.70
2022-09-24T04:48:56.534Z,22.60
2022-09-24T04:51:27.292Z,21.70
2022-09-24T04:54:02.079Z,29.30
2022-09-24T04:56:39.474Z,25.80
2022-09-24T04:59:18.257Z,25.40
2022-09-24T05:01:51.713Z,21.40
2022-09-24T05:04:20.312Z,19.70
2022-09-24T05:07:00.171Z,17.20
2022-09-24T05:09:32.337Z,17.10
2022-09-24T05:12:04.912Z,22.10
2022-09-24T05:14:36.317Z,26.40
2022-09-24T05:17:07.964Z,22.70
2022-09-24T05:19:38.313Z,22.90
2022-09-24T06:00:46.202Z,22.80
2022-09-24T06:03:16.006Z,20.70
2022-09-24T06:05:49.726Z,19.40
2022-09-24T06:08:19.427Z,20.10
2022-09-24T06:10:48.690Z,21.90
2022-09-24T06:13:19.100Z,22.90
2022-09-24T06:15:47.255Z,23.00
2022-09-24T06:18:15.424Z,22.80
2022-09-24T06:20:44.838Z,22.00
2022-09-24T06:23:13.863Z,22.00
2022-09-24T06:25:43.453Z,21.30
2022-09-24T06:28:11.446Z,20.20
2022-09-24T06:30:39.895Z,19.00
2022-09-24T06:33:11.772Z,19.70
2022-09-24T06:35:44.676Z,16.60
2022-09-24T06:38:18.428Z,14.70
2022-09-24T06:40:48.818Z,14.70
2022-09-24T06:43:20.661Z,13.80
2022-09-24T06:45:48.733Z,14.70
2022-09-24T06:48:18.043Z,15.20
2022-09-24T06:50:47.465Z,14.90
2022-09-24T06:53:16.086Z,15.30
2022-09-24T06:55:46.860Z,14.20
2022-09-24T06:58:20.155Z,13.50
2022-09-24T07:01:00.500Z,12.20
2022-09-24T07:03:32.578Z,12.80
2022-09-24T07:06:03.961Z,11.90
2022-09-24T07:08:36.095Z,10.80
2022-09-24T07:11:04.225Z,11.10
2022-09-24T07:13:38.065Z,10.60
2022-09-24T07:16:13.738Z,11.00
2022-09-24T07:18:42.072Z,11.80
2022-09-24T07:21:10.072Z,10.50
2022-09-24T07:23:38.033Z,11.40
2022-09-24T07:26:06.204Z,10.70
2022-09-24T07:28:36.572Z,11.80
2022-09-24T07:31:04.701Z,11.20
2022-09-24T07:33:32.629Z,10.70
2022-09-24T07:36:07.394Z,9.80
2022-09-24T07:38:39.013Z,10.80
2022-09-24T07:41:09.645Z,10.10
2022-09-24T07:43:37.463Z,11.10
2022-09-24T07:46:05.992Z,10.60
2022-09-24T07:48:33.787Z,10.80
2022-09-24T07:51:01.630Z,11.60
2022-09-24T07:53:29.439Z,10.70
2022-09-24T07:56:00.665Z,10.60
2022-09-24T07:58:32.038Z,10.30
2022-09-24T08:01:01.836Z,10.50
2022-09-24T08:03:33.301Z,10.70
2022-09-24T08:06:01.942Z,10.90
2022-09-24T08:08:30.212Z,9.60
2022-09-24T08:10:58.178Z,10.20
2022-09-24T08:13:27.860Z,9.70
2022-09-24T08:15:59.720Z,13.10
2022-09-24T08:18:31.850Z,9.50
2022-09-24T08:21:09.459Z,10.20
2022-09-24T08:23:40.239Z,12.90
2022-09-24T08:26:09.056Z,9.30
2022-09-24T08:28:38.126Z,9.90
2022-09-24T08:31:10.119Z,9.60
2022-09-24T08:33:39.219Z,9.60
2022-09-24T08:36:09.913Z,8.80
2022-09-24T08:38:40.552Z,9.50
2022-09-24T08:41:14.308Z,10.00
2022-09-24T08:43:54.610Z,9.50
2022-09-24T08:57:14.497Z,9.70
2022-09-24T08:59:48.931Z,9.80
2022-09-24T09:02:56.818Z,9.10
2022-09-24T09:05:53.942Z,9.50
2022-09-24T09:09:05.095Z,9.20
2022-09-24T09:11:35.820Z,8.80
2022-09-24T09:14:26.095Z,9.30
2022-09-24T09:17:03.636Z,8.90
2022-09-24T09:19:39.677Z,9.70
2022-09-24T09:22:16.358Z,8.20
2022-09-24T09:24:52.264Z,8.10
2022-09-24T09:27:30.410Z,7.40
2022-09-24T09:30:08.058Z,7.70
2022-09-24T09:33:18.995Z,7.80
2022-09-24T09:36:00.863Z,6.80
2022-09-24T09:38:51.789Z,7.20
2022-09-24T09:41:54.466Z,6.50
2022-09-24T09:44:30.374Z,6.50
2022-09-24T09:47:16.952Z,6.30
2022-09-24T09:50:06.423Z,6.30
2022-09-24T09:52:46.197Z,6.00
2022-09-24T09:56:06.156Z,5.20
2022-09-24T09:59:36.948Z,5.10
2022-09-24T10:02:58.121Z,4.70
2022-09-24T10:05:32.770Z,4.80
2022-09-24T10:08:24.362Z,5.00
2022-09-24T10:11:01.535Z,4.10
2022-09-24T10:13:32.651Z,3.40
2022-09-24T10:16:06.663Z,3.80
2022-09-24T10:18:58.302Z,3.30
2022-09-24T10:21:44.907Z,3.60
2022-09-24T10:24:38.589Z,3.30
2022-09-24T10:27:19.436Z,3.40
2022-09-24T10:30:07.617Z,3.30
2022-09-24T10:32:54.468Z,2.50
2022-09-24T10:35:35.874Z,2.30
2022-09-24T10:38:17.168Z,2.50
2022-09-24T10:40:46.450Z,2.60
2022-09-24T10:43:21.718Z,3.00
2022-09-24T10:46:24.962Z,3.50
2022-09-24T10:49:13.689Z,2.70
2022-09-24T10:52:04.714Z,3.00
2022-09-24T10:54:57.345Z,3.20
2022-09-24T10:57:35.078Z,2.70
2022-09-24T11:00:22.460Z,2.80
2022-09-24T11:03:20.209Z,3.60
2022-09-24T11:06:18.685Z,3.30
2022-09-24T11:09:26.788Z,2.60
2022-09-24T11:12:05.744Z,2.50
2022-09-24T11:15:01.779Z,3.00
2022-09-24T11:17:52.822Z,2.90
2022-09-24T11:20:30.490Z,2.80
2022-09-24T11:23:44.808Z,2.90
2022-09-24T11:26:46.131Z,3.10
2022-09-24T11:29:39.806Z,3.10
2022-09-24T11:32:33.073Z,3.20
2022-09-24T11:35:24.316Z,3.10
2022-09-24T11:38:09.719Z,3.30
2022-09-24T11:41:12.499Z,4.10
2022-09-24T11:44:05.007Z,3.30
2022-09-24T11:47:15.199Z,2.90
2022-09-24T11:50:21.368Z,3.50
2022-09-24T11:53:08.886Z,4.30
2022-09-24T11:55:52.065Z,4.20
2022-09-24T11:59:09.816Z,4.10
2022-09-24T12:01:41.162Z,4.50
2022-09-24T12:04:19.417Z,3.40
2022-09-24T12:06:56.974Z,3.70
2022-09-24T12:09:44.181Z,3.20
2022-09-24T12:12:40.515Z,3.20
2022-09-24T12:15:21.842Z,3.70
2022-09-24T12:18:04.334Z,3.30
2022-09-24T12:20:50.818Z,3.00
2022-09-24T12:23:29.754Z,2.80
2022-09-24T12:26:21.668Z,3.60
2022-09-24T12:29:48.848Z,3.40
2022-09-24T12:32:59.832Z,3.30
2022-09-24T12:36:04.758Z,4.10
2022-09-24T12:38:57.886Z,3.80
2022-09-24T12:41:33.405Z,3.10
2022-09-24T12:44:11.600Z,3.40
2022-09-24T12:46:53.488Z,3.30
2022-09-24T12:49:33.002Z,3.00
2022-09-24T12:52:25.004Z,2.40
2022-09-24T12:55:03.045Z,2.60
2022-09-24T12:57:37.023Z,3.70
2022-09-24T13:00:39.545Z,2.40
2022-09-24T13:03:33.987Z,2.50
2022-09-24T13:06:33.438Z,2.50
2022-09-24T13:09:46.025Z,2.50
2022-09-24T13:12:47.406Z,2.60
2022-09-24T13:15:42.508Z,3.30
2022-09-24T13:18:14.936Z,3.00
2022-09-24T13:20:50.097Z,2.50
2022-09-24T13:23:22.426Z,2.30
2022-09-24T13:26:06.106Z,2.70
2022-09-24T13:29:09.037Z,2.60
2022-09-24T13:39:08.117Z,3.20
2022-09-24T13:42:02.673Z,2.90
2022-09-24T13:44:58.740Z,3.30
2022-09-24T13:48:28.324Z,3.90
2022-09-24T13:50:59.249Z,4.10
2022-09-24T13:53:45.484Z,3.20
2022-09-24T13:56:18.915Z,3.30
2022-09-24T13:58:55.426Z,3.40
2022-09-24T14:01:30.547Z,3.80
2022-09-24T14:04:25.831Z,3.50
2022-09-24T14:06:58.957Z,3.20
2022-09-24T14:09:58.482Z,3.00
2022-09-24T14:12:39.129Z,2.70
2022-09-24T14:15:21.063Z,3.50
2022-09-24T14:18:01.536Z,3.20
2022-09-24T14:20:35.993Z,2.50
2022-09-24T14:23:05.320Z,2.80
2022-09-24T14:25:47.940Z,2.60
2022-09-24T14:28:17.523Z,3.10
2022-09-24T14:30:54.364Z,2.90
2022-09-24T14:33:29.895Z,3.00
2022-09-24T14:35:59.410Z,3.20
2022-09-24T14:38:36.662Z,3.30
2022-09-24T14:41:32.295Z,3.30
2022-09-24T14:44:06.097Z,3.10
2022-09-24T14:46:50.615Z,3.10
2022-09-24T14:49:56.090Z,3.10
2022-09-24T14:52:30.736Z,3.10
2022-09-24T14:55:24.671Z,3.20
2022-09-24T14:57:57.980Z,3.10
2022-09-24T15:00:48.059Z,2.60
2022-09-24T15:03:23.415Z,3.10
2022-09-24T15:06:28.987Z,3.00
2022-09-24T15:09:31.664Z,2.70
2022-09-24T15:12:30.676Z,3.60
2022-09-24T15:15:21.059Z,4.00
2022-09-24T15:17:49.561Z,3.30
2022-09-24T15:20:21.801Z,3.40
2022-09-24T15:22:49.962Z,3.40
2022-09-24T15:25:17.746Z,3.10
2022-09-24T15:27:52.795Z,4.00
2022-09-24T15:30:25.580Z,3.50
2022-09-24T15:33:02.391Z,3.70
2022-09-24T15:35:40.016Z,3.40
2022-09-24T15:38:18.659Z,4.00
2022-09-24T15:40:53.555Z,3.90
2022-09-24T15:43:25.127Z,5.80
2022-09-24T15:45:53.423Z,5.70
2022-09-24T15:48:20.324Z,5.20
2022-09-24T15:50:57.292Z,5.20
2022-09-24T15:53:31.017Z,7.20
2022-09-24T15:56:00.632Z,9.50
2022-09-24T15:58:34.421Z,8.80
2022-09-24T16:01:19.925Z,7.60
2022-09-24T16:03:46.869Z,14.10
2022-09-24T16:06:13.682Z,16.20
2022-09-24T16:08:44.654Z,21.50
2022-09-24T16:11:11.801Z,40.10
2022-09-24T16:13:45.478Z,21.90
2022-09-24T16:16:13.055Z,20.70
2022-09-24T16:18:42.760Z,9.80
2022-09-24T16:21:13.952Z,9.60
2022-09-24T16:23:42.684Z,9.00
2022-09-24T16:26:09.694Z,9.00
2022-09-24T16:28:38.653Z,8.50
2022-09-24T16:31:07.018Z,8.60
2022-09-24T16:33:39.309Z,9.80
2022-09-24T16:36:08.241Z,10.00
2022-09-24T16:38:40.937Z,11.10
2022-09-24T16:41:08.026Z,27.60
2022-09-24T16:43:34.971Z,30.50
2022-09-24T16:46:07.385Z,31.70
2022-09-24T16:51:10.951Z,51.80
2022-09-24T16:53:48.416Z,53.10
2022-09-24T16:56:23.995Z,51.70
2022-09-24T16:59:01.227Z,48.20
2022-09-24T17:04:43.255Z,43.40
2022-09-24T17:07:31.505Z,35.10
2022-09-24T17:10:21.213Z,32.70
2022-09-24T17:13:05.718Z,33.70
2022-09-24T17:15:38.411Z,33.20
2022-09-24T17:18:12.778Z,32.30
2022-09-24T17:20:48.150Z,56.90
2022-09-24T17:23:17.563Z,81.70
2022-09-24T17:25:47.766Z,61.30
2022-09-24T17:28:23.454Z,56.60
2022-09-24T17:30:51.517Z,62.70
2022-09-24T17:33:41.845Z,61.30
2022-09-24T17:36:09.232Z,67.30
2022-09-24T17:38:37.067Z,69.30
2022-09-24T17:41:07.524Z,88.10
2022-09-24T17:43:37.409Z,98.10
2022-09-24T17:46:16.462Z,93.30
2022-09-24T17:48:52.691Z,93.40
2022-09-24T17:51:32.565Z,97.30
2022-09-24T17:54:05.139Z,109.40
2022-09-24T17:56:33.829Z,121.60
2022-09-24T17:59:00.673Z,118.00
2022-09-24T18:01:38.173Z,117.00
2022-09-24T18:04:16.485Z,114.20
2022-09-24T18:06:46.067Z,90.70
2022-09-24T18:09:15.279Z,75.50
2022-09-24T18:11:46.659Z,76.20
2022-09-24T18:14:21.622Z,73.90
2022-09-24T18:16:50.067Z,63.00
2022-09-24T18:19:17.798Z,53.00
2022-09-24T18:21:46.296Z,53.20
2022-09-24T18:24:16.217Z,48.10
2022-09-24T18:26:43.882Z,44.70
2022-09-24T18:29:16.020Z,44.00
2022-09-24T18:31:44.367Z,44.90
2022-09-24T18:34:15.020Z,46.00
2022-09-24T18:36:44.363Z,44.00
2022-09-24T18:39:13.979Z,38.90
2022-09-24T18:41:45.668Z,38.10
2022-09-24T18:44:14.233Z,36.50
2022-09-24T18:46:41.556Z,37.20
2022-09-24T18:49:09.704Z,35.30
2022-09-24T18:51:41.083Z,35.90
2022-09-24T18:54:12.034Z,38.40
2022-09-24T18:56:39.444Z,40.00
2022-09-24T18:59:11.528Z,40.40
2022-09-24T19:01:40.124Z,39.80
2022-09-24T19:04:11.080Z,45.00
2022-09-24T19:06:47.889Z,80.40
2022-09-24T19:09:23.297Z,114.30
2022-09-24T19:11:50.637Z,120.60
2022-09-24T19:14:22.241Z,119.10
2022-09-24T19:17:00.381Z,105.70
2022-09-24T19:20:13.846Z,78.00
2022-09-24T19:23:13.057Z,68.40
2022-09-24T19:25:45.298Z,74.90
2022-09-24T19:28:39.920Z,80.50
2022-09-24T19:31:32.069Z,82.70
2022-09-24T19:34:03.302Z,70.00
2022-09-24T19:36:42.953Z,66.60
2022-09-24T19:39:14.771Z,57.00
2022-09-24T19:41:45.757Z,53.90
2022-09-24T19:44:13.025Z,51.00
2022-09-24T19:46:43.575Z,53.50
2022-09-24T19:49:17.918Z,62.40
2022-09-24T19:51:52.732Z,61.00
2022-09-24T19:54:19.717Z,62.20
2022-09-24T19:56:58.950Z,60.40
2022-09-24T19:59:33.206Z,56.60
2022-09-24T20:02:01.507Z,72.00
2022-09-24T20:04:32.618Z,70.20
2022-09-24T20:07:05.650Z,62.00
2022-09-24T20:09:36.309Z,58.40
2022-09-24T20:12:04.181Z,57.40
2022-09-24T20:15:50.018Z,58.90
2022-09-24T20:18:25.309Z,59.40
2022-09-24T20:20:55.642Z,61.40
2022-09-24T20:23:48.726Z,65.90
2022-09-24T20:26:38.321Z,72.20
2022-09-24T20:29:32.238Z,76.40
2022-09-24T20:32:04.816Z,84.00
2022-09-24T20:34:35.794Z,91.60
2022-09-24T20:37:05.741Z,118.10
2022-09-24T20:39:40.477Z,117.20
2022-09-24T20:42:08.370Z,119.80
2022-09-24T20:44:41.602Z,116.20
2022-09-24T20:47:10.029Z,99.70
2022-09-24T20:49:37.466Z,104.40
2022-09-24T20:52:05.252Z,106.20
2022-09-24T20:54:33.217Z,108.20
2022-09-24T20:56:59.926Z,111.10
2022-09-24T20:59:26.901Z,109.40
2022-09-24T21:01:56.918Z,119.30
2022-09-24T21:04:23.943Z,117.50
2022-09-24T21:06:50.756Z,114.90
2022-09-24T21:09:17.965Z,100.50
2022-09-24T21:11:45.505Z,95.50
2022-09-24T21:14:17.385Z,89.60
2022-09-24T21:16:45.166Z,88.00
2022-09-24T21:19:13.915Z,81.30
2022-09-24T21:21:45.501Z,79.20
2022-09-24T21:24:16.083Z,79.30
2022-09-24T21:26:46.664Z,83.70
2022-09-24T21:29:18.188Z,87.20
2022-09-24T21:31:46.752Z,81.60
2022-09-24T21:34:19.387Z,79.00
2022-09-24T21:36:46.570Z,77.60
2022-09-24T21:39:22.513Z,83.00
2022-09-24T21:41:52.658Z,84.20
2022-09-24T21:44:20.170Z,91.10
2022-09-24T21:46:50.559Z,96.50
2022-09-24T21:49:18.988Z,96.70
2022-09-24T21:51:46.775Z,96.30
2022-09-24T21:54:16.472Z,90.20
2022-09-24T21:56:44.259Z,92.40
2022-09-24T21:59:31.597Z,91.20
2022-09-24T22:02:00.939Z,91.20
2022-09-24T22:04:28.262Z,96.90
2022-09-24T22:06:55.310Z,89.90
2022-09-24T22:09:24.650Z,89.10
2022-09-24T22:11:52.208Z,87.30
2022-09-24T22:14:19.223Z,81.30
2022-09-24T22:16:46.704Z,76.90
2022-09-24T22:19:14.245Z,81.20
2022-09-24T22:21:41.028Z,71.80
2022-09-24T22:24:08.073Z,72.50
2022-09-24T22:26:35.665Z,68.30
2022-09-24T22:29:03.424Z,71.00
2022-09-24T22:31:30.321Z,73.30
2022-09-24T22:34:15.548Z,68.90
2022-09-24T22:36:42.061Z,69.00
2022-09-24T22:39:08.762Z,66.40
2022-09-24T22:41:39.397Z,66.50
2022-09-24T22:44:06.807Z,67.00
2022-09-24T22:46:35.502Z,62.90
2022-09-24T22:49:04.686Z,62.20
2022-09-24T22:51:33.074Z,55.70
2022-09-24T22:53:59.633Z,62.40
2022-09-24T22:56:27.376Z,64.50
2022-09-24T22:58:59.783Z,63.70
2022-09-24T23:01:30.788Z,62.40
2022-09-24T23:03:57.695Z,63.50
2022-09-24T23:06:29.574Z,66.60
2022-09-24T23:08:56.685Z,64.70
2022-09-24T23:11:26.889Z,65.40
2022-09-24T23:13:57.073Z,66.60
2022-09-24T23:16:34.435Z,63.40
2022-09-24T23:19:04.833Z,61.50
2022-09-24T23:21:32.855Z,66.40
2022-09-24T23:24:23.527Z,68.80
2022-09-24T23:26:50.542Z,74.90
2022-09-24T23:29:17.118Z,63.20
2022-09-24T23:31:43.739Z,63.10
2022-09-24T23:34:11.680Z,67.80
2022-09-24T23:36:38.576Z,77.40
2022-09-24T23:39:05.514Z,71.90
2022-09-24T23:41:37.480Z,68.70
2022-09-24T23:44:10.732Z,82.30
2022-09-24T23:46:37.935Z,88.80
2022-09-24T23:49:06.861Z,84.10
2022-09-24T23:51:33.774Z,78.20
2022-09-24T23:54:01.961Z,64.70
2022-09-24T23:56:28.905Z,63.50
2022-09-24T23:58:57.042Z,61.40
